This is the latest recevied weather packets stored in our database for station/object F5SAW-10. If no packets are shown the sender has not sent any weather packets the latest 10 day(s).
| Time | Temp. | Humidity | Pressure | Rain* | Wind** | Luminosity | Snow |
|---|---|---|---|---|---|---|---|
| 1778057183 | 25° C | 35% | 977.8 hPa | - | - | - | - |
| 1778056283 | 25° C | 35% | 977.7 hPa | - | - | - | - |
| 1778055383 | 25° C | 35% | 977.7 hPa | - | - | - | - |
| 1778054482 | 25° C | 36% | 977.9 hPa | - | - | - | - |
| 1778053582 | 25° C | 36% | 978 hPa | - | - | - | - |
| 1778052682 | 25° C | 36% | 977.9 hPa | - | - | - | - |
| 1778051782 | 25° C | 36% | 977.9 hPa | - | - | - | - |
| 1778050882 | 25° C | 38% | 977.8 hPa | - | - | - | - |
| 1778049982 | 24.44° C | 39% | 977.8 hPa | - | - | - | - |
| 1778049082 | 23.89° C | 40% | 977.9 hPa | - | - | - | - |
| 1778048181 | 22.78° C | 45% | 977.8 hPa | - | - | - | - |
| 1778047280 | 17.78° C | 54% | 977.8 hPa | - | - | - | - |
| 1778006785 | 25.56° C | 39% | 977.9 hPa | - | - | - | - |
| 1778005885 | 25.56° C | 39% | 977.8 hPa | - | - | - | - |
| 1778004985 | 25.56° C | 39% | 977.7 hPa | - | - | - | - |
| 1778004085 | 25.56° C | 39% | 977.7 hPa | - | - | - | - |
| 1778003185 | 25.56° C | 39% | 977.9 hPa | - | - | - | - |
| 1778002285 | 25.56° C | 39% | 977.7 hPa | - | - | - | - |
| 1778001385 | 25.56° C | 39% | 977.8 hPa | - | - | - | - |
| 1778000484 | 25.56° C | 39% | 977.9 hPa | - | - | - | - |
| 1777999584 | 25.56° C | 39% | 977.8 hPa | - | - | - | - |
| 1777998684 | 25.56° C | 39% | 977.8 hPa | - | - | - | - |
| 1777997784 | 25.56° C | 39% | 977.9 hPa | - | - | - | - |
| 1777996884 | 25.56° C | 38% | 977.8 hPa | - | - | - | - |
| 1777995984 | 26.11° C | 39% | 977.9 hPa | - | - | - | - |
* Rain since midnight (hover to see other rain measurements)
** Current wind speed in m/s (hover to see current wind gust speed)